Arlington, WA

4:07 PM PST on December 19, 2014 (GMT -0800)
Arlington Municipal | Change Station
CLOSE
Current Station
Airport
Location: Arlington,
Elevation: 138 ft
Nearby Weather Stations
Active Advisory: Winter Weather Advisory, Areal Flood Watch Active Notice: Record Report

Elev 138 ft 48.16 °N, 122.16 °W | Updated 12 minutes ago

Mostly Cloudy
Mostly Cloudy
46 °F
Feels Like 41 °F
N
12
Wind Variable Wind from SE

Today
High -- | Low -- °F
--% Chance of Precip.
Yesterday
High -- | Low -- °F
Precip. -- in
7:54 AM 4:15 PM
Waning Crescent, 5% visible
Pressure 29.96 in
Visibility 10.0 miles
Clouds Few 3900 ft
Scattered Clouds 5500 ft
Overcast 7000 ft
Windchill 41 °F
Dew Point 39 °F
Humidity 76%
Rainfall 0.09 in
Snow Depth Not available.
UV 0 out of 12
Pollen .40 out of 12
Air Quality Not available.
Flu Activity Not available.
METAR KAWO 192355Z AUTO 13010KT 10SM FEW039 SCT055 OVC070 08/04 A2996 RMK AO1 P0001 60001 10110 20080 401100060 52007

More Conditions Fewer Conditions

Pressure 29.96 in
Visibility 10.0 miles
Clouds Few 3900 ft
Scattered Clouds 5500 ft
Overcast 7000 ft
Windchill 41 °F
Dew Point 39 °F
Humidity 76%
Rainfall 0.09 in
Snow Depth Not available.
UV 0 out of 12
Pollen .40 out of 12
Air Quality Not available.
Flu Activity Not available.
METAR KAWO 192355Z AUTO 13010KT 10SM FEW039 SCT055 OVC070 08/04 A2996 RMK AO1 P0001 60001 10110 20080 401100060 52007

More Conditions Fewer Conditions

10-Day Weather Forecast

Almanac

Astronomy

Dec. 19, 2014 Rise Set
Actual Time
Civil Twilight
Nautical Twilight
Astronomical Twilight
Moon
Length of Visible Light
Length of Day
Tomorrow will be .
, % of the Moon is Illuminated

Today's Extremes

State Highs State Lows

Community

WunderPhotos

Upload Photos

1,779,079 photos uploaded!

WunderBlogs® & News

Nearby

Air Quality

  Air Quality AQ Index Pollutant
Not available.

Snow Depth

Station Depth Elevation

Earthquake Activity

City Distance Mag. Time & Date
Minimum magnitude displayed is 2.5.

Coastal Water Temperatures

Place Temperature

Nearby Weather Stations